Time;durP1;ratioP1;P1;durP2;ratioP2;P2;SDS_P1;SDS_P2;PMS_P1;PMS_P2;Temp;Humidity;BMP_temperature;BMP_pressure;BME280_temperature;BME280_humidity;BME280_pressure;Samples;Min_cycle;Max_cycle;Signal;HPM_P1;HPM_P2
2023/10/04 00:00:15;;;;;;;0.50;0.50;;;;;;;15.37;48.28;101823.50;5029425;28;20390;-86
2023/10/04 00:03:01;;;;;;;0.30;0.30;;;;;;;15.42;47.97;101820.34;5029048;28;20398;-86
2023/10/04 00:05:28;;;;;;;0.50;0.45;;;;;;;15.36;47.96;101818.34;5026423;28;20417;-85
2023/10/04 00:07:55;;;;;;;0.37;0.30;;;;;;;15.28;48.14;101808.53;5028986;28;20499;-85
2023/10/04 00:10:23;;;;;;;0.50;0.50;;;;;;;15.28;48.24;101814.69;5012175;28;20391;-86
2023/10/04 00:12:54;;;;;;;0.40;0.40;;;;;;;15.29;48.13;101815.56;5028394;28;20794;-87
2023/10/04 00:15:30;;;;;;;0.50;0.50;;;;;;;15.26;48.02;101811.38;5022301;28;20417;-86
2023/10/04 00:17:56;;;;;;;0.40;0.40;;;;;;;15.28;48.17;101814.69;5011145;28;20390;-86
2023/10/04 00:20:31;;;;;;;0.40;0.40;;;;;;;15.25;48.07;101807.06;5027570;28;20390;-87
2023/10/04 00:23:05;;;;;;;0.30;0.30;;;;;;;15.24;48.17;101818.72;5027070;28;21476;-81
2023/10/04 00:25:33;;;;;;;0.43;0.43;;;;;;;15.19;48.08;101818.41;5026648;28;20497;-83
2023/10/04 00:28:02;;;;;;;0.40;0.40;;;;;;;15.21;48.17;101813.72;4994344;28;20403;-82
2023/10/04 00:30:29;;;;;;;0.30;0.30;;;;;;;15.25;48.14;101820.41;5010465;28;20387;-84
2023/10/04 00:32:57;;;;;;;0.50;0.40;;;;;;;15.25;48.13;101814.22;5010604;28;20398;-82
2023/10/04 00:35:25;;;;;;;0.40;0.40;;;;;;;15.21;47.89;101810.22;5027144;28;20410;-88
2023/10/04 00:37:57;;;;;;;0.50;0.40;;;;;;;15.17;48.29;101822.28;5010736;28;20539;-90
2023/10/04 00:40:38;;;;;;;0.68;0.60;;;;;;;15.03;48.58;101815.81;5027934;28;20399;-89
2023/10/04 00:43:07;;;;;;;0.55;0.50;;;;;;;14.94;48.85;101808.84;5028466;28;20402;-85
2023/10/04 00:45:37;;;;;;;0.30;0.30;;;;;;;14.89;48.91;101815.53;5027401;28;20452;-87
2023/10/04 00:48:29;;;;;;;0.60;0.60;;;;;;;14.88;48.89;101818.38;5043869;28;20812;-87
2023/10/04 00:50:59;;;;;;;0.38;0.38;;;;;;;14.88;48.61;101816.53;5027650;28;20402;-86
2023/10/04 00:53:29;;;;;;;0.30;0.30;;;;;;;14.85;48.91;101813.38;5043974;28;20445;-87
2023/10/04 00:55:56;;;;;;;0.70;0.60;;;;;;;14.86;48.71;101799.03;5043844;28;20410;-86
2023/10/04 00:58:23;;;;;;;0.40;0.40;;;;;;;14.91;48.45;101807.34;5029609;28;20383;-85
2023/10/04 01:00:50;;;;;;;0.30;0.30;;;;;;;14.90;48.56;101803.00;5034764;28;20464;-86
2023/10/04 01:03:30;;;;;;;0.52;0.45;;;;;;;14.97;48.36;101805.84;5034735;28;20460;-87
2023/10/04 01:06:05;;;;;;;0.50;0.50;;;;;;;14.97;48.42;101805.84;5036491;28;20397;-89
2023/10/04 01:08:32;;;;;;;0.75;0.60;;;;;;;14.93;48.81;101800.00;5049761;28;20390;-87
2023/10/04 01:10:58;;;;;;;0.80;0.50;;;;;;;14.90;48.57;101797.66;5029582;28;20390;-86
2023/10/04 01:13:26;;;;;;;1.40;1.30;;;;;;;14.91;48.62;101808.19;5043635;28;20405;-86
2023/10/04 01:15:59;;;;;;;0.45;0.45;;;;;;;14.93;48.65;101815.16;5028624;28;20769;-85
2023/10/04 01:18:39;;;;;;;0.40;0.40;;;;;;;14.86;48.89;101805.19;5029097;28;20386;-86
2023/10/04 01:21:07;;;;;;;0.40;0.40;;;;;;;14.84;49.12;101814.38;5029127;28;20401;-85
2023/10/04 01:23:33;;;;;;;1.20;1.10;;;;;;;14.70;49.55;101797.22;5034967;28;20943;-85
2023/10/04 01:26:03;;;;;;;1.67;1.20;;;;;;;14.52;49.95;101800.91;5029562;28;20386;-87
2023/10/04 01:28:32;;;;;;;0.70;0.70;;;;;;;14.41;51.01;101797.75;5028871;28;20390;-87
2023/10/04 01:31:01;;;;;;;0.40;0.40;;;;;;;14.33;51.10;101799.44;5028092;28;20401;-87
2023/10/04 01:33:30;;;;;;;0.50;0.50;;;;;;;14.34;51.16;101800.25;5028434;28;20889;-84
2023/10/04 01:36:04;;;;;;;0.57;0.57;;;;;;;14.20;51.41;101801.75;5029046;28;20406;-87
2023/10/04 01:38:36;;;;;;;0.47;0.47;;;;;;;14.22;51.69;101801.59;5027488;28;20909;-89
2023/10/04 01:41:04;;;;;;;0.60;0.60;;;;;;;14.26;51.36;101795.78;5026930;28;20382;-88
2023/10/04 01:43:38;;;;;;;0.50;0.50;;;;;;;14.34;50.71;101790.41;5028040;28;20401;-90
2023/10/04 01:46:04;;;;;;;0.90;0.60;;;;;;;14.40;50.78;101793.41;5043709;28;20563;-90
2023/10/04 01:48:34;;;;;;;0.50;0.50;;;;;;;14.38;50.67;101782.91;5027719;28;21301;-89
2023/10/04 01:51:02;;;;;;;0.50;0.50;;;;;;;14.33;51.07;101787.91;5027229;28;20747;-90
2023/10/04 01:53:29;;;;;;;0.43;0.43;;;;;;;14.07;52.05;101788.09;5043898;28;20501;-88
2023/10/04 01:56:02;;;;;;;0.50;0.50;;;;;;;13.96;51.95;101789.25;5043481;28;20409;-87
2023/10/04 01:58:29;;;;;;;0.40;0.30;;;;;;;13.96;52.30;101792.75;5026978;28;20448;-89
2023/10/04 02:00:56;;;;;;;0.40;0.40;;;;;;;13.82;52.86;101793.41;5028558;28;20449;-88
2023/10/04 02:03:24;;;;;;;0.40;0.40;;;;;;;13.75;53.10;101806.56;5028971;28;20395;-89
2023/10/04 02:05:59;;;;;;;0.50;0.40;;;;;;;13.68;53.41;101804.72;5028533;28;20682;-88
2023/10/04 02:08:28;;;;;;;1.70;1.08;;;;;;;13.70;53.22;101794.72;5042718;28;20414;-89
2023/10/04 02:10:54;;;;;;;0.82;0.50;;;;;;;13.83;52.88;101804.91;5027453;28;20430;-89
2023/10/04 02:13:26;;;;;;;0.82;0.45;;;;;;;13.85;52.45;101798.41;5027941;28;20401;-90
2023/10/04 02:15:57;;;;;;;1.10;0.60;;;;;;;13.92;52.19;101804.75;5028298;28;20508;-89
2023/10/04 02:18:26;;;;;;;0.90;0.60;;;;;;;13.80;52.41;101802.59;5039172;28;20406;-88
2023/10/04 02:20:53;;;;;;;1.10;0.57;;;;;;;13.65;52.93;101805.03;5030830;28;20390;-89
2023/10/04 02:23:21;;;;;;;1.00;0.65;;;;;;;13.61;52.97;101809.03;5028801;28;20391;-89
2023/10/04 02:25:47;;;;;;;1.17;0.63;;;;;;;13.73;52.75;101799.72;5028056;28;20485;-89
2023/10/04 02:28:18;;;;;;;1.60;1.15;;;;;;;13.75;52.51;101789.72;5026744;28;20390;-88
2023/10/04 02:30:48;;;;;;;1.17;0.70;;;;;;;13.72;52.59;101790.91;5026952;28;20386;-88
2023/10/04 02:33:14;;;;;;;1.13;0.70;;;;;;;13.61;53.12;101793.03;5026188;28;20407;-89
2023/10/04 02:35:47;;;;;;;1.05;0.60;;;;;;;13.62;53.01;101794.72;5027452;28;21194;-88
2023/10/04 02:38:23;;;;;;;1.08;0.60;;;;;;;13.45;53.51;101791.16;5043144;28;20390;-86
2023/10/04 02:40:56;;;;;;;1.45;1.25;;;;;;;13.33;53.96;101793.31;5027532;28;20395;-88
2023/10/04 02:43:25;;;;;;;1.20;0.70;;;;;;;13.35;53.78;101788.66;5025650;28;20402;-84
2023/10/04 02:45:52;;;;;;;1.10;0.60;;;;;;;13.29;54.03;101794.56;5025632;28;20397;-87
2023/10/04 02:48:19;;;;;;;1.58;1.05;;;;;;;13.25;54.07;101793.25;5028855;28;20466;-88
2023/10/04 02:50:46;;;;;;;1.30;0.70;;;;;;;13.28;54.26;101795.59;5046235;28;20485;-86
2023/10/04 02:53:16;;;;;;;1.13;1.00;;;;;;;13.16;54.73;101793.22;5047845;28;20401;-87
2023/10/04 02:55:42;;;;;;;1.08;0.60;;;;;;;12.92;55.08;101799.25;5032284;28;20426;-87
2023/10/04 02:58:16;;;;;;;0.88;0.70;;;;;;;12.88;55.35;101794.44;5030452;28;20818;-88
2023/10/04 03:00:49;;;;;;;1.40;0.85;;;;;;;12.84;55.34;101774.44;5046832;28;20405;-86
2023/10/04 03:03:22;;;;;;;0.68;0.40;;;;;;;12.98;55.26;101789.78;5029709;28;20405;-89
2023/10/04 03:05:51;;;;;;;0.70;0.40;;;;;;;13.16;54.32;101785.25;5029898;28;20425;-87
2023/10/04 03:08:19;;;;;;;1.13;0.60;;;;;;;13.28;53.90;101792.94;5029460;28;20394;-87
2023/10/04 03:10:49;;;;;;;1.50;0.65;;;;;;;13.25;53.82;101790.56;5029927;28;20386;-87
2023/10/04 03:13:22;;;;;;;1.52;1.23;;;;;;;13.28;53.81;101791.09;5047889;28;20889;-91
2023/10/04 03:15:50;;;;;;;1.30;0.63;;;;;;;13.41;53.44;101803.97;5059730;28;20544;-87
2023/10/04 03:18:25;;;;;;;1.70;0.90;;;;;;;13.48;53.15;101798.84;5058922;28;20489;-88
2023/10/04 03:23:33;;;;;;;0.60;0.40;;;;;;;13.60;52.67;101788.72;5031773;28;20406;-88
2023/10/04 03:26:00;;;;;;;0.77;0.55;;;;;;;13.65;52.45;101795.22;5031444;28;21059;-91
2023/10/04 03:28:26;;;;;;;0.80;0.50;;;;;;;13.66;52.08;101801.38;5038284;28;20394;-86
2023/10/04 03:30:56;;;;;;;1.75;0.98;;;;;;;13.71;52.01;101793.72;5039553;28;20410;-89
2023/10/04 03:33:32;;;;;;;1.05;0.50;;;;;;;13.79;52.05;101798.25;5039430;28;20390;-89
2023/10/04 03:36:04;;;;;;;1.53;0.70;;;;;;;13.85;51.77;101806.41;5016242;28;20421;-87
2023/10/04 03:38:34;;;;;;;0.70;0.52;;;;;;;13.79;51.71;101804.38;5048159;28;20444;-87
2023/10/04 03:41:08;;;;;;;1.25;0.75;;;;;;;13.81;51.88;101796.22;5034691;28;20402;-89
2023/10/04 03:43:35;;;;;;;0.77;0.52;;;;;;;13.80;51.67;101797.25;5039853;28;20386;-90
2023/10/04 03:46:18;;;;;;;0.93;0.50;;;;;;;13.81;51.46;101809.56;5044648;28;20389;-88
2023/10/04 03:48:49;;;;;;;0.60;0.40;;;;;;;13.75;51.87;101813.72;5043980;28;20517;-88
2023/10/04 03:51:23;;;;;;;0.75;0.43;;;;;;;13.67;51.88;101808.38;5039723;28;20386;-90
2023/10/04 03:53:50;;;;;;;1.20;0.75;;;;;;;13.62;52.19;101808.88;5024622;28;20398;-88
2023/10/04 03:56:18;;;;;;;0.75;0.50;;;;;;;13.51;52.69;101809.19;5039266;28;20496;-90
2023/10/04 03:58:45;;;;;;;1.80;0.80;;;;;;;13.42;52.65;101803.00;5045582;28;20395;-89
2023/10/04 04:01:14;;;;;;;0.75;0.50;;;;;;;13.34;52.95;101811.78;5032502;28;20413;-90
2023/10/04 04:03:44;;;;;;;1.80;0.52;;;;;;;13.21;53.52;101819.34;5021594;28;20908;-89
2023/10/04 04:06:13;;;;;;;1.42;0.60;;;;;;;13.26;53.59;101813.56;5044497;28;20378;-87
2023/10/04 04:08:42;;;;;;;0.73;0.50;;;;;;;13.35;53.26;101812.63;5030847;28;20484;-87
2023/10/04 04:11:08;;;;;;;1.15;0.60;;;;;;;13.39;52.64;101808.63;5035795;28;20386;-88
2023/10/04 04:13:35;;;;;;;1.08;0.40;;;;;;;13.44;52.31;101802.84;5015706;28;20386;-88
2023/10/04 04:16:00;;;;;;;0.83;0.50;;;;;;;13.45;52.29;101804.47;5031172;28;20928;-87
2023/10/04 04:18:29;;;;;;;0.70;0.40;;;;;;;13.44;52.58;101813.50;5033546;28;20473;-81
2023/10/04 04:20:56;;;;;;;0.60;0.32;;;;;;;13.45;52.41;101816.00;5017607;28;20776;-90
2023/10/04 04:23:24;;;;;;;0.55;0.32;;;;;;;13.46;52.52;101820.31;5042219;28;20772;-87
2023/10/04 04:25:50;;;;;;;0.87;0.47;;;;;;;13.50;52.00;101818.97;5032484;28;20393;-89
2023/10/04 04:28:18;;;;;;;1.50;0.90;;;;;;;13.48;52.11;101820.16;5016987;28;20454;-90
2023/10/04 04:30:47;;;;;;;0.93;0.50;;;;;;;13.44;52.00;101813.50;5032783;28;20842;-87
2023/10/04 04:33:16;;;;;;;0.98;0.43;;;;;;;13.46;52.03;101822.97;4992748;28;20386;-88
2023/10/04 04:38:38;;;;;;;0.80;0.38;;;;;;;13.50;52.00;101818.97;4995755;28;20382;-87
2023/10/04 04:41:13;;;;;;;1.15;0.80;;;;;;;13.51;51.80;101831.31;4991686;28;20398;-88
2023/10/04 04:43:46;;;;;;;0.65;0.40;;;;;;;13.47;52.13;101826.47;4974951;28;20456;-88
2023/10/04 04:46:26;;;;;;;0.98;0.88;;;;;;;13.39;52.56;101828.09;4976965;28;20405;-89
2023/10/04 04:48:57;;;;;;;0.90;0.60;;;;;;;13.26;52.96;101818.88;4968833;28;20434;-89
2023/10/04 04:51:25;;;;;;;2.10;1.77;;;;;;;13.33;53.41;101828.75;4973319;28;20512;-86
2023/10/04 04:53:56;;;;;;;0.68;0.45;;;;;;;13.42;52.65;101831.47;4983577;28;20477;-88
2023/10/04 04:56:23;;;;;;;1.00;0.80;;;;;;;13.47;52.97;101853.94;4974839;28;20501;-87
2023/10/04 04:58:56;;;;;;;0.73;0.60;;;;;;;13.13;54.06;101838.78;4992774;28;20398;-89
2023/10/04 05:01:23;;;;;;;0.52;0.32;;;;;;;13.05;54.72;101844.06;4993150;28;20405;-89
2023/10/04 05:03:51;;;;;;;0.60;0.47;;;;;;;13.00;54.98;101844.56;4989060;28;20391;-90
2023/10/04 05:06:22;;;;;;;1.17;0.80;;;;;;;13.05;54.66;101843.25;5031036;28;20398;-89
2023/10/04 05:08:53;;;;;;;0.52;0.50;;;;;;;12.88;55.50;101853.78;5015930;28;20490;-89
2023/10/04 05:11:24;;;;;;;0.73;0.70;;;;;;;12.98;55.49;101864.31;5032588;28;20460;-90
2023/10/04 05:13:51;;;;;;;0.70;0.50;;;;;;;12.85;55.72;101862.09;5033581;28;20405;-90
2023/10/04 05:16:27;;;;;;;0.50;0.38;;;;;;;12.81;56.07;101864.22;4993977;28;20465;-89
2023/10/04 05:18:58;;;;;;;1.92;0.95;;;;;;;13.00;55.41;101859.69;4978736;28;20492;-90
2023/10/04 05:21:25;;;;;;;1.17;0.63;;;;;;;12.97;55.19;101858.16;4961693;28;20472;-90
2023/10/04 05:24:07;;;;;;;1.05;0.95;;;;;;;12.98;55.40;101859.84;4962483;28;20533;-89
2023/10/04 05:26:35;;;;;;;1.02;0.77;;;;;;;13.03;55.46;101858.53;4962163;28;20402;-89
2023/10/04 05:29:32;;;;;;;1.15;0.80;;;;;;;13.23;55.25;101861.81;4995044;28;20488;-89
2023/10/04 05:31:58;;;;;;;0.80;0.60;;;;;;;13.41;54.29;101857.25;5006797;28;20509;-85
2023/10/04 05:34:27;;;;;;;0.57;0.40;;;;;;;13.60;54.15;101869.47;4996730;28;20390;-88
2023/10/04 05:37:09;;;;;;;0.35;0.25;;;;;;;13.75;53.81;101865.19;4980818;28;20425;-91
2023/10/04 05:39:36;;;;;;;0.50;0.40;;;;;;;13.86;53.50;101863.22;4991118;28;20413;-81
2023/10/04 05:42:03;;;;;;;1.10;0.50;;;;;;;13.93;53.40;101872.22;4990035;28;20397;-82
2023/10/04 05:44:28;;;;;;;0.40;0.40;;;;;;;14.06;53.45;101883.25;4989395;28;20397;-85
2023/10/04 05:46:55;;;;;;;0.90;0.50;;;;;;;14.03;53.70;101872.09;4984623;28;20406;-83
2023/10/04 05:49:20;;;;;;;0.70;0.40;;;;;;;13.98;53.85;101872.56;5010120;28;20471;-81
2023/10/04 05:51:47;;;;;;;0.52;0.40;;;;;;;14.00;53.89;101865.25;5027652;28;20394;-82
2023/10/04 05:54:13;;;;;;;1.73;0.70;;;;;;;14.22;53.55;101871.75;5012520;28;20417;-81
2023/10/04 05:56:41;;;;;;;1.50;1.23;;;;;;;14.26;53.65;101870.44;5026097;28;20923;-84
2023/10/04 05:59:10;;;;;;;0.70;0.40;;;;;;;14.34;53.40;101878.44;5027068;28;20403;-82
2023/10/04 06:01:37;;;;;;;1.08;0.57;;;;;;;14.31;53.68;101872.59;5011240;28;20454;-83
2023/10/04 06:04:05;;;;;;;0.60;0.50;;;;;;;14.49;53.32;101891.94;5026958;28;20998;-80
2023/10/04 06:06:45;;;;;;;1.17;0.98;;;;;;;14.57;53.54;101887.59;5011956;28;20380;-85
2023/10/04 06:09:29;;;;;;;0.60;0.60;;;;;;;14.66;52.96;101863.44;5028727;28;20402;-85
2023/10/04 06:12:02;;;;;;;0.50;0.30;;;;;;;14.87;52.48;101862.94;5013581;28;20880;-84
2023/10/04 06:14:30;;;;;;;0.40;0.30;;;;;;;15.03;52.43;101866.53;5028947;28;20449;-86
2023/10/04 06:16:55;;;;;;;0.70;0.47;;;;;;;15.21;52.03;101869.81;5028806;28;20406;-84
2023/10/04 06:19:25;;;;;;;0.40;0.30;;;;;;;15.18;52.23;101861.31;5030053;28;20414;-85
2023/10/04 06:21:52;;;;;;;0.95;0.75;;;;;;;15.38;52.00;101875.97;5012871;28;20398;-85
2023/10/04 06:24:43;;;;;;;0.30;0.20;;;;;;;15.49;51.89;101872.06;5013377;28;20455;-83
2023/10/04 06:27:14;;;;;;;0.40;0.40;;;;;;;15.63;51.61;101874.00;5033306;28;20399;-85
2023/10/04 06:29:50;;;;;;;1.00;0.50;;;;;;;15.68;51.44;101876.13;5015706;28;20449;-84
2023/10/04 06:32:19;;;;;;;0.22;0.22;;;;;;;15.82;51.14;101880.78;5013940;28;20425;-82
2023/10/04 06:34:49;;;;;;;0.30;0.30;;;;;;;15.97;51.03;101872.84;4995620;28;20460;-84
2023/10/04 06:37:16;;;;;;;0.40;0.40;;;;;;;16.12;50.91;101880.94;5009574;28;20975;-85
2023/10/04 06:39:49;;;;;;;0.40;0.30;;;;;;;16.28;50.66;101877.31;5021941;28;20407;-85
2023/10/04 06:42:21;;;;;;;0.70;0.70;;;;;;;16.42;50.63;101886.38;5026424;28;20451;-84
2023/10/04 06:44:55;;;;;;;0.50;0.50;;;;;;;16.46;50.43;101881.50;5011161;28;20380;-84
2023/10/04 06:47:23;;;;;;;0.30;0.30;;;;;;;16.61;50.27;101882.38;5028468;28;20425;-83
2023/10/04 06:49:51;;;;;;;0.30;0.30;;;;;;;16.76;49.96;101887.75;4963497;28;20395;-85
2023/10/04 06:52:18;;;;;;;0.30;0.20;;;;;;;16.77;49.97;101886.75;5008036;28;20491;-84
2023/10/04 06:54:45;;;;;;;0.80;0.57;;;;;;;16.84;49.95;101881.53;4992175;28;20478;-85
2023/10/04 06:57:13;;;;;;;3.15;1.05;;;;;;;16.93;49.87;101875.06;5006888;28;20438;-82
2023/10/04 06:59:44;;;;;;;0.47;0.38;;;;;;;17.07;49.75;101887.66;5006953;28;20404;-84
2023/10/04 07:02:31;;;;;;;0.52;0.38;;;;;;;17.12;49.68;101885.22;4990514;28;20927;-82
2023/10/04 07:05:22;;;;;;;0.80;0.60;;;;;;;17.25;49.45;101887.28;5005989;28;20491;-81
2023/10/04 07:08:07;;;;;;;0.37;0.23;;;;;;;17.39;49.29;101886.44;4974669;28;20822;-79
2023/10/04 07:10:39;;;;;;;0.65;0.45;;;;;;;17.54;49.02;101882.91;4969135;28;20815;-83
2023/10/04 07:13:11;;;;;;;0.68;0.63;;;;;;;17.56;49.06;101884.38;4921712;28;20474;-84
2023/10/04 07:16:00;;;;;;;0.52;0.40;;;;;;;17.66;48.91;101885.91;4986102;28;20506;-83
2023/10/04 07:18:30;;;;;;;0.82;0.80;;;;;;;17.69;48.76;101881.00;4972060;28;20834;-85
2023/10/04 07:20:56;;;;;;;0.45;0.43;;;;;;;17.85;48.85;101876.44;4974635;28;20523;-82
2023/10/04 07:23:51;;;;;;;0.52;0.32;;;;;;;17.98;48.64;101876.59;4984569;28;20394;-84
2023/10/04 07:26:16;;;;;;;0.52;0.40;;;;;;;18.18;48.16;101878.66;5009884;28;20942;-82
2023/10/04 07:28:46;;;;;;;0.80;0.60;;;;;;;18.21;48.02;101878.28;5008727;28;20388;-83
2023/10/04 07:31:18;;;;;;;0.25;0.25;;;;;;;18.31;47.81;101886.81;4989613;28;20396;-82
2023/10/04 07:33:44;;;;;;;1.33;0.82;;;;;;;18.41;47.94;101873.09;4975067;28;20408;-83
2023/10/04 07:36:16;;;;;;;0.30;0.20;;;;;;;18.51;47.73;101868.19;5013202;28;20422;-85
2023/10/04 07:38:50;;;;;;;0.70;0.60;;;;;;;18.44;47.70;101861.94;4980313;28;20400;-84
2023/10/04 07:41:17;;;;;;;0.75;0.43;;;;;;;18.50;47.71;101858.50;4988235;28;20435;-83
2023/10/04 07:43:45;;;;;;;0.35;0.25;;;;;;;18.64;47.56;101854.91;5016273;28;20462;-83
2023/10/04 07:46:42;;;;;;;0.47;0.30;;;;;;;18.69;47.30;101856.97;5018384;28;20413;-83
2023/10/04 07:49:10;;;;;;;0.50;0.38;;;;;;;18.89;47.20;101843.72;5032560;28;20410;-83
2023/10/04 07:51:51;;;;;;;0.40;0.40;;;;;;;19.07;46.91;101835.16;5032862;28;20390;-83
2023/10/04 07:54:41;;;;;;;0.50;0.40;;;;;;;19.21;46.75;101836.03;5033638;28;21098;-83
2023/10/04 07:57:06;;;;;;;0.60;0.40;;;;;;;19.19;46.72;101830.03;5019527;28;20420;-86
2023/10/04 07:59:36;;;;;;;1.00;0.57;;;;;;;19.22;46.92;101829.63;5035035;28;20465;-86
2023/10/04 08:02:12;;;;;;;0.90;0.73;;;;;;;19.28;46.89;101836.88;5017731;28;20426;-87
2023/10/04 08:04:37;;;;;;;0.95;0.70;;;;;;;19.36;46.96;101827.84;5036973;28;20398;-85
2023/10/04 08:07:12;;;;;;;0.52;0.40;;;;;;;19.46;46.53;101829.13;5040322;28;20405;-83
2023/10/04 08:09:41;;;;;;;0.90;0.45;;;;;;;19.62;46.39;101827.91;5036635;28;20398;-86
2023/10/04 08:12:07;;;;;;;0.87;0.53;;;;;;;19.83;46.14;101829.63;5015696;28;20390;-86
2023/10/04 08:14:37;;;;;;;0.80;0.40;;;;;;;19.96;46.14;101830.69;5050368;28;20444;-86
2023/10/04 08:17:04;;;;;;;0.40;0.30;;;;;;;20.03;45.95;101828.84;5033737;28;20505;-85
2023/10/04 08:19:31;;;;;;;0.88;0.43;;;;;;;19.95;46.09;101837.09;5033715;28;20391;-86
2023/10/04 08:21:57;;;;;;;0.65;0.30;;;;;;;20.09;46.01;101833.38;5031343;28;20397;-85
2023/10/04 08:24:24;;;;;;;1.10;0.67;;;;;;;20.20;45.69;101823.88;5015573;28;21065;-85
2023/10/04 08:26:50;;;;;;;0.55;0.30;;;;;;;20.22;45.77;101821.78;5032747;28;20397;-85
2023/10/04 08:29:23;;;;;;;0.40;0.30;;;;;;;20.21;45.83;101826.34;5018567;28;20390;-87
2023/10/04 08:31:49;;;;;;;0.50;0.50;;;;;;;20.34;45.80;101822.00;5017435;28;20392;-84
2023/10/04 08:34:18;;;;;;;0.60;0.60;;;;;;;20.39;45.56;101824.91;5015198;28;20395;-86
2023/10/04 08:36:44;;;;;;;0.95;0.57;;;;;;;20.47;45.33;101821.19;5014549;28;20415;-84
2023/10/04 08:39:11;;;;;;;0.52;0.43;;;;;;;20.81;44.71;101818.25;5029351;28;20392;-86
2023/10/04 08:41:40;;;;;;;1.80;1.10;;;;;;;21.03;43.91;101822.53;5028311;28;20392;-85
2023/10/04 08:44:06;;;;;;;1.08;0.60;;;;;;;21.10;43.33;101807.16;5028475;28;20418;-89
2023/10/04 08:46:32;;;;;;;0.60;0.40;;;;;;;21.13;43.58;101804.06;5010768;28;20420;-80
2023/10/04 08:49:00;;;;;;;0.52;0.40;;;;;;;21.09;43.90;101800.94;5027535;28;20874;-82
2023/10/04 08:51:50;;;;;;;1.08;0.55;;;;;;;21.05;44.27;101802.44;5026632;28;20953;-83
2023/10/04 08:54:25;;;;;;;0.90;0.60;;;;;;;21.11;44.62;101801.56;5012162;28;20394;-84
2023/10/04 08:57:13;;;;;;;0.63;0.38;;;;;;;21.20;44.63;101794.06;5011157;28;20414;-81
2023/10/04 08:59:40;;;;;;;1.23;0.65;;;;;;;21.42;44.39;101794.56;5012530;28;20836;-83
2023/10/04 09:02:11;;;;;;;1.00;0.50;;;;;;;21.78;43.94;101798.53;5028060;28;20392;-83
2023/10/04 09:04:39;;;;;;;0.90;0.50;;;;;;;22.09;42.71;101792.28;5012665;28;20386;-85
2023/10/04 09:07:10;;;;;;;0.30;0.20;;;;;;;22.18;42.66;101790.13;5013598;28;20454;-86
2023/10/04 09:09:38;;;;;;;0.52;0.30;;;;;;;22.19;42.70;101785.56;5012989;28;20388;-84
2023/10/04 09:12:09;;;;;;;1.00;0.60;;;;;;;22.24;42.86;101783.03;5013411;28;20395;-84
2023/10/04 09:14:40;;;;;;;0.67;0.50;;;;;;;22.26;42.93;101784.47;5013525;28;20491;-82
2023/10/04 09:17:12;;;;;;;0.50;0.30;;;;;;;22.28;43.06;101768.06;5035322;28;20415;-84
2023/10/04 09:19:41;;;;;;;0.70;0.40;;;;;;;22.39;43.10;101780.00;5017802;28;20982;-84
2023/10/04 09:22:09;;;;;;;0.67;0.37;;;;;;;22.53;43.23;101784.22;5032532;28;20398;-84
2023/10/04 09:24:56;;;;;;;0.70;0.40;;;;;;;22.65;43.37;101771.63;5001356;28;20491;-83
2023/10/04 09:27:23;;;;;;;0.70;0.45;;;;;;;22.71;43.08;101767.19;5000585;28;20761;-84
2023/10/04 09:29:49;;;;;;;0.73;0.50;;;;;;;22.90;42.78;101781.50;5015161;28;20828;-83
2023/10/04 09:32:40;;;;;;;0.60;0.32;;;;;;;23.13;42.36;101771.91;5030324;28;20396;-84
2023/10/04 09:35:06;;;;;;;0.50;0.40;;;;;;;23.33;42.01;101766.22;4999426;28;21076;-83
2023/10/04 09:37:32;;;;;;;0.80;0.55;;;;;;;23.36;42.11;101763.88;5029854;28;20390;-83
2023/10/04 09:40:12;;;;;;;0.43;0.30;;;;;;;23.46;41.98;101764.16;5012927;28;20928;-83
2023/10/04 09:42:56;;;;;;;0.85;0.75;;;;;;;23.62;41.68;101759.13;5012758;28;20405;-82
2023/10/04 09:45:38;;;;;;;0.75;0.40;;;;;;;23.83;41.25;101752.38;5029129;28;20479;-83
2023/10/04 09:48:12;;;;;;;0.57;0.30;;;;;;;23.83;40.60;101753.22;5012401;28;20418;-83
2023/10/04 09:50:39;;;;;;;0.60;0.32;;;;;;;24.03;39.71;101752.06;4993872;28;20440;-83
2023/10/04 09:53:07;;;;;;;0.90;0.43;;;;;;;24.02;40.19;101748.53;5008503;28;20476;-85
2023/10/04 09:55:35;;;;;;;1.20;0.53;;;;;;;24.19;39.39;101754.06;4992395;28;20466;-83
2023/10/04 09:58:05;;;;;;;0.70;0.55;;;;;;;24.22;39.47;101750.88;4992242;28;20512;-85
2023/10/04 10:00:32;;;;;;;1.58;0.93;;;;;;;24.25;39.85;101757.69;4978858;28;20413;-82
2023/10/04 10:03:04;;;;;;;1.33;0.90;;;;;;;24.20;40.02;101763.84;5014492;28;20398;-84
2023/10/04 10:05:34;;;;;;;1.08;0.45;;;;;;;24.28;40.14;101753.72;5010950;28;20914;-83
2023/10/04 10:08:08;;;;;;;0.90;0.50;;;;;;;24.28;40.25;101751.00;5007751;28;20401;-83
2023/10/04 10:10:37;;;;;;;0.93;0.40;;;;;;;24.37;40.37;101755.00;5008144;28;20394;-85
2023/10/04 10:13:08;;;;;;;1.57;0.57;;;;;;;24.35;39.96;101752.53;4992045;28;20385;-83
2023/10/04 10:15:36;;;;;;;0.85;0.45;;;;;;;24.39;39.88;101745.56;5006992;28;20414;-83
2023/10/04 10:18:07;;;;;;;0.60;0.38;;;;;;;24.38;40.42;101745.78;5011435;28;20416;-83
2023/10/04 10:20:58;;;;;;;1.70;0.80;;;;;;;24.53;40.24;101750.78;4997728;28;20901;-84
2023/10/04 10:23:58;;;;;;;1.75;0.45;;;;;;;24.68;39.18;101748.38;4998240;28;20764;-83
2023/10/04 10:26:27;;;;;;;1.17;0.40;;;;;;;24.80;38.83;101735.63;4990593;28;20836;-84
2023/10/04 10:29:03;;;;;;;2.17;0.60;;;;;;;24.71;39.44;101731.63;4990167;28;20393;-84
2023/10/04 10:31:29;;;;;;;1.10;0.40;;;;;;;24.73;39.49;101728.69;4991865;28;20492;-83
2023/10/04 10:33:56;;;;;;;1.40;0.40;;;;;;;24.93;39.10;101723.66;4992864;28;20392;-84
2023/10/04 10:36:32;;;;;;;0.70;0.50;;;;;;;25.21;38.13;101729.31;5010418;28;20590;-84
2023/10/04 10:38:59;;;;;;;1.35;0.60;;;;;;;25.43;37.22;101721.34;4992514;28;20523;-85
2023/10/04 10:41:57;;;;;;;1.58;0.45;;;;;;;25.54;36.47;101720.44;5009414;28;20456;-89
2023/10/04 10:44:30;;;;;;;0.45;0.38;;;;;;;25.37;37.40;101715.81;4992264;28;20794;-84
2023/10/04 10:47:06;;;;;;;0.50;0.50;;;;;;;25.42;37.54;101717.78;5009174;28;20394;-85
2023/10/04 10:50:12;;;;;;;0.70;0.40;;;;;;;25.43;38.28;101710.50;5027234;28;20475;-84
2023/10/04 10:52:39;;;;;;;0.90;0.32;;;;;;;25.57;37.74;101714.53;5009898;28;20454;-82
2023/10/04 10:55:06;;;;;;;0.35;0.30;;;;;;;25.55;37.78;101714.78;5026597;28;20396;-83
2023/10/04 10:57:36;;;;;;;0.20;0.20;;;;;;;25.51;37.87;101715.50;5012210;28;20434;-83
2023/10/04 11:00:12;;;;;;;0.30;0.30;;;;;;;25.66;37.93;101715.75;5013006;28;20905;-88
2023/10/04 11:02:38;;;;;;;0.40;0.40;;;;;;;25.71;37.48;101710.41;5030264;28;21004;-83
2023/10/04 11:05:27;;;;;;;0.30;0.30;;;;;;;25.89;36.42;101697.63;5011759;28;20481;-85
2023/10/04 11:07:58;;;;;;;0.30;0.30;;;;;;;26.05;35.58;101696.00;4995902;28;20442;-83
2023/10/04 11:10:25;;;;;;;0.30;0.30;;;;;;;26.03;36.23;101693.53;5031705;28;20390;-84
2023/10/04 11:12:54;;;;;;;0.30;0.30;;;;;;;25.85;37.03;101686.44;5001062;28;20909;-84
2023/10/04 11:15:26;;;;;;;0.30;0.25;;;;;;;25.87;37.49;101689.72;5018396;28;20396;-83
2023/10/04 11:17:54;;;;;;;1.52;0.73;;;;;;;25.87;37.57;101687.00;5032934;28;20416;-86
2023/10/04 11:20:21;;;;;;;0.40;0.30;;;;;;;25.92;37.64;101686.28;5032257;28;20406;-83
2023/10/04 11:22:49;;;;;;;0.47;0.40;;;;;;;26.01;37.50;101687.53;5032975;28;20386;-84
2023/10/04 11:25:26;;;;;;;0.40;0.40;;;;;;;26.03;37.68;101687.28;4999833;28;20398;-84
2023/10/04 11:27:53;;;;;;;0.40;0.30;;;;;;;26.01;37.80;101689.41;5016689;28;20397;-82
2023/10/04 11:30:23;;;;;;;0.47;0.47;;;;;;;26.11;37.71;101678.72;5029885;28;20455;-85
2023/10/04 11:32:59;;;;;;;0.30;0.30;;;;;;;26.11;37.79;101671.38;5012852;28;20396;-82
2023/10/04 11:35:32;;;;;;;0.57;0.57;;;;;;;26.19;37.47;101674.72;5013256;28;20435;-83
2023/10/04 11:37:58;;;;;;;0.60;0.60;;;;;;;26.25;37.11;101669.13;5014998;28;20404;-84
2023/10/04 11:40:28;;;;;;;0.30;0.20;;;;;;;26.29;37.23;101669.44;5017550;28;20739;-85
2023/10/04 11:43:01;;;;;;;0.80;0.70;;;;;;;26.40;36.82;101665.75;5013685;28;20396;-81
2023/10/04 11:45:28;;;;;;;0.30;0.30;;;;;;;26.32;37.28;101663.47;4993533;28;20393;-82
2023/10/04 11:48:08;;;;;;;0.20;0.20;;;;;;;26.38;36.80;101659.75;4993325;28;20810;-83